Otto, Wyoming
Current Conditions -  °F | °C
As of 2:53 PM on Thursday 25 Dec 2014 (Local Time) from KGEY Reporting Station
Overcast Overcast  
Wind Chill: 11°   Ceiling: 7000
Heat Index: 26°   Visibility: 10mi
Dew Point: 18°   Wind: 24mph
Humidity: 71%   Direction: 330°NNW
Pressure: 29.78"   Gusts: 33mph
Location:  44.4°N, 108.28°W
Report Text: KGEY 252153Z AUTO 33021G29KT 10SM OVC070 M03/M08 A2978 RMK AO2 PK WND 33030/2117 SLP118 T10331078
Loading
Personal Weather Stations






























Interactive Weather Map New forecast layout! Learn more

10-Day Weather Forecast

Advertisements
Track Severe Weather on mobile